ICAO: (seperate multiple stations with a space)
EGTC - No Current METAR

TAF EGTC 151358Z 1515/1518 30009KT CAVOK
  PROB30
  TEMPO 1515/1518 3000 TSGS BKN045CB


EGSC - No Current METAR

TAF EGSC 151358Z 1515/1519 27009KT CAVOK
  PROB30
  TEMPO 1515/1519 3000 TSGS BKN045CB


EGGW 152150Z AUTO 14005KT 9999 //////CB 21/11 Q1006

TAF EGGW 151705Z 1518/1618 33010KT CAVOK
  BECMG 1518/1521 27005KT
  PROB30
  TEMPO 1518/1521 3000 +SHRA BKN048CB
  PROB30
  TEMPO 1608/1611 7000 SHRA
  TEMPO 1611/1618 6000 SHRA BKN040
  PROB30
  TEMPO 1612/1618 3000 +SHRA


EGUY - No Current METAR